sensor_id;sensor_type;location;lat;lon;timestamp;P1;durP1;ratioP1;P2;durP2;ratioP2
78120;SDS011;67585;44.802;10.332;2023-10-08T00:01:14;34.55;;;16.33;;
78120;SDS011;67585;44.802;10.332;2023-10-08T00:06:13;32.90;;;14.55;;
78120;SDS011;67585;44.802;10.332;2023-10-08T00:08:39;37.05;;;16.00;;
78120;SDS011;67585;44.802;10.332;2023-10-08T00:11:05;36.08;;;15.75;;
78120;SDS011;67585;44.802;10.332;2023-10-08T00:13:35;35.38;;;14.27;;
78120;SDS011;67585;44.802;10.332;2023-10-08T00:16:08;34.45;;;14.65;;
78120;SDS011;67585;44.802;10.332;2023-10-08T00:18:35;33.72;;;14.52;;
78120;SDS011;67585;44.802;10.332;2023-10-08T00:21:02;36.47;;;14.98;;
78120;SDS011;67585;44.802;10.332;2023-10-08T00:23:34;33.25;;;15.43;;
78120;SDS011;67585;44.802;10.332;2023-10-08T00:26:00;30.52;;;15.43;;
78120;SDS011;67585;44.802;10.332;2023-10-08T00:28:29;31.80;;;14.20;;
78120;SDS011;67585;44.802;10.332;2023-10-08T00:30:56;36.10;;;14.45;;
78120;SDS011;67585;44.802;10.332;2023-10-08T00:33:36;34.80;;;14.10;;
78120;SDS011;67585;44.802;10.332;2023-10-08T00:36:01;36.80;;;15.38;;
78120;SDS011;67585;44.802;10.332;2023-10-08T00:38:42;33.40;;;16.00;;
78120;SDS011;67585;44.802;10.332;2023-10-08T00:41:14;30.60;;;13.70;;
78120;SDS011;67585;44.802;10.332;2023-10-08T00:43:40;29.08;;;13.00;;
78120;SDS011;67585;44.802;10.332;2023-10-08T00:46:06;35.47;;;13.93;;
78120;SDS011;67585;44.802;10.332;2023-10-08T00:48:48;27.02;;;13.20;;
78120;SDS011;67585;44.802;10.332;2023-10-08T00:51:16;39.10;;;15.10;;
78120;SDS011;67585;44.802;10.332;2023-10-08T00:54:09;27.20;;;12.63;;
78120;SDS011;67585;44.802;10.332;2023-10-08T00:56:35;35.08;;;14.15;;
78120;SDS011;67585;44.802;10.332;2023-10-08T00:59:20;28.52;;;12.48;;
78120;SDS011;67585;44.802;10.332;2023-10-08T01:01:47;35.55;;;15.63;;
78120;SDS011;67585;44.802;10.332;2023-10-08T01:04:23;32.78;;;13.93;;
78120;SDS011;67585;44.802;10.332;2023-10-08T01:06:51;33.25;;;12.63;;
78120;SDS011;67585;44.802;10.332;2023-10-08T01:09:24;30.73;;;12.82;;
78120;SDS011;67585;44.802;10.332;2023-10-08T01:14:49;28.63;;;12.88;;
78120;SDS011;67585;44.802;10.332;2023-10-08T01:17:18;30.80;;;14.35;;
78120;SDS011;67585;44.802;10.332;2023-10-08T01:19:49;28.83;;;13.68;;
78120;SDS011;67585;44.802;10.332;2023-10-08T01:22:34;32.38;;;15.30;;
78120;SDS011;67585;44.802;10.332;2023-10-08T01:24:59;33.95;;;13.70;;
78120;SDS011;67585;44.802;10.332;2023-10-08T01:27:29;33.30;;;14.88;;
78120;SDS011;67585;44.802;10.332;2023-10-08T01:29:59;32.35;;;14.20;;
78120;SDS011;67585;44.802;10.332;2023-10-08T01:32:40;32.13;;;13.93;;
78120;SDS011;67585;44.802;10.332;2023-10-08T01:35:06;27.88;;;12.77;;
78120;SDS011;67585;44.802;10.332;2023-10-08T01:37:47;34.05;;;13.82;;
78120;SDS011;67585;44.802;10.332;2023-10-08T01:40:13;34.50;;;15.02;;
78120;SDS011;67585;44.802;10.332;2023-10-08T01:42:38;32.78;;;13.95;;
78120;SDS011;67585;44.802;10.332;2023-10-08T01:45:04;29.98;;;13.70;;
78120;SDS011;67585;44.802;10.332;2023-10-08T01:47:32;33.35;;;14.10;;
78120;SDS011;67585;44.802;10.332;2023-10-08T01:49:58;30.85;;;14.73;;
78120;SDS011;67585;44.802;10.332;2023-10-08T01:52:30;31.63;;;12.93;;
78120;SDS011;67585;44.802;10.332;2023-10-08T01:54:55;32.55;;;14.93;;
78120;SDS011;67585;44.802;10.332;2023-10-08T01:57:21;32.42;;;14.23;;
78120;SDS011;67585;44.802;10.332;2023-10-08T01:59:46;31.25;;;12.98;;
78120;SDS011;67585;44.802;10.332;2023-10-08T02:02:12;31.80;;;13.43;;
78120;SDS011;67585;44.802;10.332;2023-10-08T02:04:40;37.47;;;15.13;;
78120;SDS011;67585;44.802;10.332;2023-10-08T02:07:05;31.02;;;14.82;;
78120;SDS011;67585;44.802;10.332;2023-10-08T02:09:37;37.97;;;14.35;;
78120;SDS011;67585;44.802;10.332;2023-10-08T02:12:06;30.95;;;13.90;;
78120;SDS011;67585;44.802;10.332;2023-10-08T02:14:31;31.75;;;14.05;;
78120;SDS011;67585;44.802;10.332;2023-10-08T02:17:00;29.13;;;12.73;;
78120;SDS011;67585;44.802;10.332;2023-10-08T02:19:31;32.97;;;13.55;;
78120;SDS011;67585;44.802;10.332;2023-10-08T02:21:57;36.38;;;15.05;;
78120;SDS011;67585;44.802;10.332;2023-10-08T02:24:23;32.75;;;14.13;;
78120;SDS011;67585;44.802;10.332;2023-10-08T02:26:53;34.25;;;15.20;;
78120;SDS011;67585;44.802;10.332;2023-10-08T02:29:20;31.58;;;13.32;;
78120;SDS011;67585;44.802;10.332;2023-10-08T02:31:47;33.80;;;16.55;;
78120;SDS011;67585;44.802;10.332;2023-10-08T02:34:12;26.23;;;12.25;;
78120;SDS011;67585;44.802;10.332;2023-10-08T02:36:38;37.30;;;14.07;;
78120;SDS011;67585;44.802;10.332;2023-10-08T02:41:32;38.47;;;15.30;;
78120;SDS011;67585;44.802;10.332;2023-10-08T02:43:57;32.83;;;14.48;;
78120;SDS011;67585;44.802;10.332;2023-10-08T02:46:24;27.27;;;12.88;;
78120;SDS011;67585;44.802;10.332;2023-10-08T02:48:51;30.88;;;13.45;;
78120;SDS011;67585;44.802;10.332;2023-10-08T02:51:17;33.38;;;15.27;;
78120;SDS011;67585;44.802;10.332;2023-10-08T02:53:45;29.42;;;13.48;;
78120;SDS011;67585;44.802;10.332;2023-10-08T02:56:12;33.85;;;14.88;;
78120;SDS011;67585;44.802;10.332;2023-10-08T02:58:41;32.33;;;15.05;;
78120;SDS011;67585;44.802;10.332;2023-10-08T03:01:08;31.80;;;13.52;;
78120;SDS011;67585;44.802;10.332;2023-10-08T03:03:40;33.88;;;14.98;;
78120;SDS011;67585;44.802;10.332;2023-10-08T03:06:11;33.85;;;13.25;;
78120;SDS011;67585;44.802;10.332;2023-10-08T03:08:39;23.48;;;12.35;;
78120;SDS011;67585;44.802;10.332;2023-10-08T03:11:08;37.20;;;12.63;;
78120;SDS011;67585;44.802;10.332;2023-10-08T03:13:43;30.98;;;14.30;;
78120;SDS011;67585;44.802;10.332;2023-10-08T03:16:14;27.30;;;13.13;;
78120;SDS011;67585;44.802;10.332;2023-10-08T03:18:40;30.27;;;14.93;;
78120;SDS011;67585;44.802;10.332;2023-10-08T03:21:15;31.70;;;13.85;;
78120;SDS011;67585;44.802;10.332;2023-10-08T03:23:45;31.15;;;13.50;;
78120;SDS011;67585;44.802;10.332;2023-10-08T03:26:13;33.25;;;13.85;;
78120;SDS011;67585;44.802;10.332;2023-10-08T03:29:02;29.05;;;13.55;;
78120;SDS011;67585;44.802;10.332;2023-10-08T03:31:40;28.30;;;12.63;;
78120;SDS011;67585;44.802;10.332;2023-10-08T03:34:29;29.10;;;12.80;;
78120;SDS011;67585;44.802;10.332;2023-10-08T03:36:59;30.83;;;13.55;;
78120;SDS011;67585;44.802;10.332;2023-10-08T03:39:30;30.45;;;13.57;;
78120;SDS011;67585;44.802;10.332;2023-10-08T03:42:22;33.83;;;14.23;;
78120;SDS011;67585;44.802;10.332;2023-10-08T03:44:48;32.17;;;13.23;;
78120;SDS011;67585;44.802;10.332;2023-10-08T03:47:19;36.53;;;15.15;;
78120;SDS011;67585;44.802;10.332;2023-10-08T03:49:47;34.97;;;15.02;;
78120;SDS011;67585;44.802;10.332;2023-10-08T03:52:15;34.03;;;13.73;;
78120;SDS011;67585;44.802;10.332;2023-10-08T03:54:42;30.63;;;14.38;;
78120;SDS011;67585;44.802;10.332;2023-10-08T03:57:13;36.45;;;14.23;;
78120;SDS011;67585;44.802;10.332;2023-10-08T03:59:44;31.25;;;13.07;;
78120;SDS011;67585;44.802;10.332;2023-10-08T04:02:13;32.47;;;14.65;;
78120;SDS011;67585;44.802;10.332;2023-10-08T04:04:42;38.60;;;15.30;;
78120;SDS011;67585;44.802;10.332;2023-10-08T04:07:17;34.45;;;15.05;;
78120;SDS011;67585;44.802;10.332;2023-10-08T04:09:50;31.75;;;14.48;;
78120;SDS011;67585;44.802;10.332;2023-10-08T04:12:29;35.17;;;15.05;;
78120;SDS011;67585;44.802;10.332;2023-10-08T04:14:55;32.75;;;13.75;;
78120;SDS011;67585;44.802;10.332;2023-10-08T04:17:21;35.03;;;13.90;;
78120;SDS011;67585;44.802;10.332;2023-10-08T04:19:47;36.95;;;14.45;;
78120;SDS011;67585;44.802;10.332;2023-10-08T04:22:13;36.55;;;14.57;;
78120;SDS011;67585;44.802;10.332;2023-10-08T04:24:43;33.75;;;14.85;;
78120;SDS011;67585;44.802;10.332;2023-10-08T04:27:09;34.75;;;14.10;;
78120;SDS011;67585;44.802;10.332;2023-10-08T04:29:34;33.88;;;13.93;;
78120;SDS011;67585;44.802;10.332;2023-10-08T04:32:02;37.30;;;14.90;;
78120;SDS011;67585;44.802;10.332;2023-10-08T04:34:36;34.10;;;13.88;;
78120;SDS011;67585;44.802;10.332;2023-10-08T04:37:02;32.63;;;13.50;;
78120;SDS011;67585;44.802;10.332;2023-10-08T04:39:37;34.95;;;13.63;;
78120;SDS011;67585;44.802;10.332;2023-10-08T04:42:05;30.25;;;13.00;;
78120;SDS011;67585;44.802;10.332;2023-10-08T04:44:35;32.75;;;14.32;;
78120;SDS011;67585;44.802;10.332;2023-10-08T04:47:04;31.20;;;14.10;;
78120;SDS011;67585;44.802;10.332;2023-10-08T04:49:31;28.10;;;12.35;;
78120;SDS011;67585;44.802;10.332;2023-10-08T04:52:05;32.58;;;13.48;;
78120;SDS011;67585;44.802;10.332;2023-10-08T04:54:41;32.72;;;13.32;;
78120;SDS011;67585;44.802;10.332;2023-10-08T04:57:16;29.60;;;13.52;;
78120;SDS011;67585;44.802;10.332;2023-10-08T04:59:42;31.52;;;14.05;;
78120;SDS011;67585;44.802;10.332;2023-10-08T05:02:08;36.05;;;13.32;;
78120;SDS011;67585;44.802;10.332;2023-10-08T05:04:52;29.17;;;15.75;;
78120;SDS011;67585;44.802;10.332;2023-10-08T05:07:25;28.50;;;11.82;;
78120;SDS011;67585;44.802;10.332;2023-10-08T05:10:25;28.85;;;13.05;;
78120;SDS011;67585;44.802;10.332;2023-10-08T05:12:55;25.05;;;11.82;;
78120;SDS011;67585;44.802;10.332;2023-10-08T05:15:32;32.47;;;12.18;;
78120;SDS011;67585;44.802;10.332;2023-10-08T05:17:58;28.13;;;11.48;;
78120;SDS011;67585;44.802;10.332;2023-10-08T05:20:38;29.58;;;12.57;;
78120;SDS011;67585;44.802;10.332;2023-10-08T05:23:19;31.98;;;12.48;;
78120;SDS011;67585;44.802;10.332;2023-10-08T05:25:54;29.60;;;12.82;;
78120;SDS011;67585;44.802;10.332;2023-10-08T05:28:25;27.98;;;11.13;;
78120;SDS011;67585;44.802;10.332;2023-10-08T05:30:50;28.67;;;12.80;;
78120;SDS011;67585;44.802;10.332;2023-10-08T05:33:36;28.25;;;12.20;;
78120;SDS011;67585;44.802;10.332;2023-10-08T05:36:21;26.42;;;11.77;;
78120;SDS011;67585;44.802;10.332;2023-10-08T05:39:18;31.77;;;12.60;;
78120;SDS011;67585;44.802;10.332;2023-10-08T05:41:49;42.28;;;13.77;;
78120;SDS011;67585;44.802;10.332;2023-10-08T05:44:34;29.48;;;12.40;;
78120;SDS011;67585;44.802;10.332;2023-10-08T05:47:06;30.85;;;13.73;;
78120;SDS011;67585;44.802;10.332;2023-10-08T05:49:49;27.25;;;11.98;;
78120;SDS011;67585;44.802;10.332;2023-10-08T05:52:42;36.47;;;14.02;;
78120;SDS011;67585;44.802;10.332;2023-10-08T05:55:24;28.92;;;13.27;;
78120;SDS011;67585;44.802;10.332;2023-10-08T05:57:53;33.90;;;13.25;;
78120;SDS011;67585;44.802;10.332;2023-10-08T06:00:46;30.77;;;13.23;;
78120;SDS011;67585;44.802;10.332;2023-10-08T06:03:16;34.42;;;11.82;;
78120;SDS011;67585;44.802;10.332;2023-10-08T06:06:04;29.70;;;12.93;;
78120;SDS011;67585;44.802;10.332;2023-10-08T06:08:34;29.75;;;12.80;;
78120;SDS011;67585;44.802;10.332;2023-10-08T06:11:29;27.05;;;11.98;;
78120;SDS011;67585;44.802;10.332;2023-10-08T06:14:10;25.33;;;11.20;;
78120;SDS011;67585;44.802;10.332;2023-10-08T06:16:42;28.25;;;12.00;;
78120;SDS011;67585;44.802;10.332;2023-10-08T06:19:12;26.05;;;11.68;;
78120;SDS011;67585;44.802;10.332;2023-10-08T06:21:39;22.73;;;10.32;;
78120;SDS011;67585;44.802;10.332;2023-10-08T06:24:06;22.30;;;10.52;;
78120;SDS011;67585;44.802;10.332;2023-10-08T06:26:36;24.20;;;10.25;;
78120;SDS011;67585;44.802;10.332;2023-10-08T06:29:07;26.38;;;11.98;;
78120;SDS011;67585;44.802;10.332;2023-10-08T06:31:52;27.45;;;10.88;;
78120;SDS011;67585;44.802;10.332;2023-10-08T06:34:20;24.98;;;10.13;;
78120;SDS011;67585;44.802;10.332;2023-10-08T06:36:47;24.05;;;10.27;;
78120;SDS011;67585;44.802;10.332;2023-10-08T06:39:13;22.10;;;9.80;;
78120;SDS011;67585;44.802;10.332;2023-10-08T06:41:43;23.90;;;11.63;;
78120;SDS011;67585;44.802;10.332;2023-10-08T06:44:11;26.65;;;10.63;;
78120;SDS011;67585;44.802;10.332;2023-10-08T06:46:40;25.73;;;11.25;;
78120;SDS011;67585;44.802;10.332;2023-10-08T06:49:06;31.27;;;9.80;;
78120;SDS011;67585;44.802;10.332;2023-10-08T06:51:37;26.10;;;9.98;;
78120;SDS011;67585;44.802;10.332;2023-10-08T06:56:29;24.88;;;10.48;;
78120;SDS011;67585;44.802;10.332;2023-10-08T06:58:56;28.38;;;10.23;;
78120;SDS011;67585;44.802;10.332;2023-10-08T07:01:24;20.27;;;9.73;;
78120;SDS011;67585;44.802;10.332;2023-10-08T07:03:56;21.63;;;9.13;;
78120;SDS011;67585;44.802;10.332;2023-10-08T07:06:28;19.90;;;9.65;;
78120;SDS011;67585;44.802;10.332;2023-10-08T07:08:59;29.60;;;9.32;;
78120;SDS011;67585;44.802;10.332;2023-10-08T07:11:29;27.05;;;9.77;;
78120;SDS011;67585;44.802;10.332;2023-10-08T07:13:59;26.58;;;9.07;;
78120;SDS011;67585;44.802;10.332;2023-10-08T07:16:25;29.45;;;9.00;;
78120;SDS011;67585;44.802;10.332;2023-10-08T07:18:53;18.60;;;7.70;;
78120;SDS011;67585;44.802;10.332;2023-10-08T07:21:26;26.85;;;10.02;;
78120;SDS011;67585;44.802;10.332;2023-10-08T07:24:04;22.85;;;9.90;;
78120;SDS011;67585;44.802;10.332;2023-10-08T07:26:34;18.92;;;7.53;;
78120;SDS011;67585;44.802;10.332;2023-10-08T07:29:02;19.63;;;8.55;;
78120;SDS011;67585;44.802;10.332;2023-10-08T07:31:37;21.42;;;7.88;;
78120;SDS011;67585;44.802;10.332;2023-10-08T07:34:06;20.70;;;9.80;;
78120;SDS011;67585;44.802;10.332;2023-10-08T07:36:43;19.67;;;7.88;;
78120;SDS011;67585;44.802;10.332;2023-10-08T07:39:10;26.98;;;8.85;;
78120;SDS011;67585;44.802;10.332;2023-10-08T07:41:50;20.05;;;9.55;;
78120;SDS011;67585;44.802;10.332;2023-10-08T07:44:16;20.20;;;8.45;;
78120;SDS011;67585;44.802;10.332;2023-10-08T07:46:48;23.17;;;8.68;;
78120;SDS011;67585;44.802;10.332;2023-10-08T07:49:15;21.13;;;9.10;;
78120;SDS011;67585;44.802;10.332;2023-10-08T07:51:42;23.08;;;8.88;;
78120;SDS011;67585;44.802;10.332;2023-10-08T07:54:19;21.13;;;9.90;;
78120;SDS011;67585;44.802;10.332;2023-10-08T07:56:47;20.67;;;7.55;;
78120;SDS011;67585;44.802;10.332;2023-10-08T07:59:13;22.40;;;9.00;;
78120;SDS011;67585;44.802;10.332;2023-10-08T08:01:41;20.17;;;10.60;;
78120;SDS011;67585;44.802;10.332;2023-10-08T08:04:11;17.55;;;8.48;;
78120;SDS011;67585;44.802;10.332;2023-10-08T08:06:50;22.35;;;9.23;;
78120;SDS011;67585;44.802;10.332;2023-10-08T08:09:18;22.55;;;9.32;;
78120;SDS011;67585;44.802;10.332;2023-10-08T08:11:48;25.23;;;12.13;;
78120;SDS011;67585;44.802;10.332;2023-10-08T08:14:15;20.70;;;9.25;;
78120;SDS011;67585;44.802;10.332;2023-10-08T08:16:49;23.13;;;10.95;;
78120;SDS011;67585;44.802;10.332;2023-10-08T08:19:15;18.55;;;9.00;;
78120;SDS011;67585;44.802;10.332;2023-10-08T08:21:43;21.30;;;8.23;;
78120;SDS011;67585;44.802;10.332;2023-10-08T08:24:12;19.42;;;9.73;;
78120;SDS011;67585;44.802;10.332;2023-10-08T08:26:38;21.67;;;9.70;;
78120;SDS011;67585;44.802;10.332;2023-10-08T08:29:26;21.15;;;10.95;;
78120;SDS011;67585;44.802;10.332;2023-10-08T08:31:55;21.35;;;8.95;;
78120;SDS011;67585;44.802;10.332;2023-10-08T08:34:22;20.50;;;10.55;;
78120;SDS011;67585;44.802;10.332;2023-10-08T08:36:50;20.10;;;9.18;;
78120;SDS011;67585;44.802;10.332;2023-10-08T08:39:16;21.65;;;10.10;;
78120;SDS011;67585;44.802;10.332;2023-10-08T08:41:54;20.15;;;8.55;;
78120;SDS011;67585;44.802;10.332;2023-10-08T08:44:27;22.42;;;10.68;;
78120;SDS011;67585;44.802;10.332;2023-10-08T08:46:54;20.42;;;9.30;;
78120;SDS011;67585;44.802;10.332;2023-10-08T08:49:23;20.95;;;9.60;;
78120;SDS011;67585;44.802;10.332;2023-10-08T08:54:18;20.13;;;10.07;;
78120;SDS011;67585;44.802;10.332;2023-10-08T08:56:45;21.83;;;10.27;;
78120;SDS011;67585;44.802;10.332;2023-10-08T08:59:11;22.70;;;10.15;;
78120;SDS011;67585;44.802;10.332;2023-10-08T09:01:40;20.80;;;9.88;;
78120;SDS011;67585;44.802;10.332;2023-10-08T09:04:07;21.15;;;10.25;;
78120;SDS011;67585;44.802;10.332;2023-10-08T09:06:36;24.90;;;9.80;;
78120;SDS011;67585;44.802;10.332;2023-10-08T09:09:06;21.45;;;10.23;;
78120;SDS011;67585;44.802;10.332;2023-10-08T09:11:50;25.17;;;9.45;;
78120;SDS011;67585;44.802;10.332;2023-10-08T09:14:22;26.13;;;11.25;;
78120;SDS011;67585;44.802;10.332;2023-10-08T09:16:54;23.65;;;10.23;;
78120;SDS011;67585;44.802;10.332;2023-10-08T09:19:20;23.35;;;11.27;;
78120;SDS011;67585;44.802;10.332;2023-10-08T09:22:02;22.73;;;10.30;;
78120;SDS011;67585;44.802;10.332;2023-10-08T09:24:36;23.27;;;9.57;;
78120;SDS011;67585;44.802;10.332;2023-10-08T09:27:06;24.95;;;10.23;;
78120;SDS011;67585;44.802;10.332;2023-10-08T09:29:36;23.17;;;11.38;;
78120;SDS011;67585;44.802;10.332;2023-10-08T09:32:05;22.45;;;10.50;;
78120;SDS011;67585;44.802;10.332;2023-10-08T09:36:57;23.65;;;9.38;;
78120;SDS011;67585;44.802;10.332;2023-10-08T09:39:27;23.55;;;11.88;;
78120;SDS011;67585;44.802;10.332;2023-10-08T09:41:55;18.90;;;9.20;;
78120;SDS011;67585;44.802;10.332;2023-10-08T09:44:22;22.00;;;11.15;;
78120;SDS011;67585;44.802;10.332;2023-10-08T09:46:52;21.08;;;9.98;;
78120;SDS011;67585;44.802;10.332;2023-10-08T09:49:24;22.67;;;11.50;;
78120;SDS011;67585;44.802;10.332;2023-10-08T09:51:57;20.98;;;10.50;;
78120;SDS011;67585;44.802;10.332;2023-10-08T09:54:29;18.27;;;8.73;;
78120;SDS011;67585;44.802;10.332;2023-10-08T09:57:03;16.38;;;7.55;;
78120;SDS011;67585;44.802;10.332;2023-10-08T09:59:31;18.77;;;8.52;;
78120;SDS011;67585;44.802;10.332;2023-10-08T10:01:58;15.80;;;7.95;;
78120;SDS011;67585;44.802;10.332;2023-10-08T10:04:24;18.70;;;8.40;;
78120;SDS011;67585;44.802;10.332;2023-10-08T10:06:51;19.70;;;9.93;;
78120;SDS011;67585;44.802;10.332;2023-10-08T10:09:20;18.27;;;7.55;;
78120;SDS011;67585;44.802;10.332;2023-10-08T10:11:48;21.08;;;7.50;;
78120;SDS011;67585;44.802;10.332;2023-10-08T10:14:23;17.23;;;6.32;;
78120;SDS011;67585;44.802;10.332;2023-10-08T10:19:49;20.63;;;7.88;;
78120;SDS011;67585;44.802;10.332;2023-10-08T10:24:53;15.55;;;5.95;;
78120;SDS011;67585;44.802;10.332;2023-10-08T10:27:18;15.00;;;6.70;;
78120;SDS011;67585;44.802;10.332;2023-10-08T10:29:44;16.77;;;7.07;;
78120;SDS011;67585;44.802;10.332;2023-10-08T10:32:14;16.25;;;5.72;;
78120;SDS011;67585;44.802;10.332;2023-10-08T10:34:41;17.70;;;6.15;;
78120;SDS011;67585;44.802;10.332;2023-10-08T10:37:08;14.25;;;6.07;;
78120;SDS011;67585;44.802;10.332;2023-10-08T10:42:05;14.45;;;6.22;;
78120;SDS011;67585;44.802;10.332;2023-10-08T10:44:43;17.25;;;6.10;;
78120;SDS011;67585;44.802;10.332;2023-10-08T10:47:09;19.30;;;9.02;;
78120;SDS011;67585;44.802;10.332;2023-10-08T10:49:41;14.82;;;8.07;;
78120;SDS011;67585;44.802;10.332;2023-10-08T10:52:19;16.08;;;8.35;;
78120;SDS011;67585;44.802;10.332;2023-10-08T10:55:10;22.60;;;9.60;;
78120;SDS011;67585;44.802;10.332;2023-10-08T10:57:39;22.20;;;10.32;;
78120;SDS011;67585;44.802;10.332;2023-10-08T11:00:07;18.05;;;7.80;;
78120;SDS011;67585;44.802;10.332;2023-10-08T11:02:51;20.08;;;9.15;;
78120;SDS011;67585;44.802;10.332;2023-10-08T11:05:16;18.88;;;10.32;;
78120;SDS011;67585;44.802;10.332;2023-10-08T11:07:46;18.60;;;8.02;;
78120;SDS011;67585;44.802;10.332;2023-10-08T11:10:13;21.83;;;8.82;;
78120;SDS011;67585;44.802;10.332;2023-10-08T11:12:41;20.85;;;9.85;;
78120;SDS011;67585;44.802;10.332;2023-10-08T11:15:18;17.77;;;9.02;;
78120;SDS011;67585;44.802;10.332;2023-10-08T11:17:44;18.67;;;8.43;;
78120;SDS011;67585;44.802;10.332;2023-10-08T11:20:27;22.45;;;11.05;;
78120;SDS011;67585;44.802;10.332;2023-10-08T11:22:54;19.60;;;9.85;;
78120;SDS011;67585;44.802;10.332;2023-10-08T11:25:23;14.73;;;8.07;;
78120;SDS011;67585;44.802;10.332;2023-10-08T11:27:55;16.23;;;8.70;;
78120;SDS011;67585;44.802;10.332;2023-10-08T11:30:28;17.65;;;9.00;;
78120;SDS011;67585;44.802;10.332;2023-10-08T11:33:00;18.20;;;7.05;;
78120;SDS011;67585;44.802;10.332;2023-10-08T11:35:25;16.20;;;7.45;;
78120;SDS011;67585;44.802;10.332;2023-10-08T11:37:59;19.40;;;7.95;;
78120;SDS011;67585;44.802;10.332;2023-10-08T11:40:28;15.23;;;7.75;;
78120;SDS011;67585;44.802;10.332;2023-10-08T11:42:59;21.05;;;9.10;;
78120;SDS011;67585;44.802;10.332;2023-10-08T11:45:28;18.30;;;8.05;;
78120;SDS011;67585;44.802;10.332;2023-10-08T11:48:03;17.08;;;7.50;;
78120;SDS011;67585;44.802;10.332;2023-10-08T11:50:37;17.63;;;6.80;;
78120;SDS011;67585;44.802;10.332;2023-10-08T11:53:03;17.20;;;9.55;;
78120;SDS011;67585;44.802;10.332;2023-10-08T11:55:34;18.65;;;9.73;;
78120;SDS011;67585;44.802;10.332;2023-10-08T11:58:05;19.98;;;8.80;;
78120;SDS011;67585;44.802;10.332;2023-10-08T12:00:42;14.90;;;6.28;;
78120;SDS011;67585;44.802;10.332;2023-10-08T12:03:12;18.25;;;7.15;;
78120;SDS011;67585;44.802;10.332;2023-10-08T12:05:48;17.13;;;8.95;;
78120;SDS011;67585;44.802;10.332;2023-10-08T12:08:14;16.70;;;7.75;;
78120;SDS011;67585;44.802;10.332;2023-10-08T12:10:43;18.25;;;5.95;;
78120;SDS011;67585;44.802;10.332;2023-10-08T12:13:11;18.23;;;5.28;;
78120;SDS011;67585;44.802;10.332;2023-10-08T12:15:36;12.10;;;5.72;;
78120;SDS011;67585;44.802;10.332;2023-10-08T12:18:07;15.15;;;5.75;;
78120;SDS011;67585;44.802;10.332;2023-10-08T12:21:05;15.40;;;5.13;;
78120;SDS011;67585;44.802;10.332;2023-10-08T12:23:36;15.98;;;7.50;;
78120;SDS011;67585;44.802;10.332;2023-10-08T12:26:02;14.70;;;4.68;;
78120;SDS011;67585;44.802;10.332;2023-10-08T12:28:28;12.93;;;6.05;;
78120;SDS011;67585;44.802;10.332;2023-10-08T12:30:54;14.10;;;6.13;;
78120;SDS011;67585;44.802;10.332;2023-10-08T12:33:21;12.15;;;5.93;;
78120;SDS011;67585;44.802;10.332;2023-10-08T12:35:49;13.68;;;7.10;;
78120;SDS011;67585;44.802;10.332;2023-10-08T12:38:18;12.00;;;6.10;;
78120;SDS011;67585;44.802;10.332;2023-10-08T12:40:47;14.38;;;5.88;;
78120;SDS011;67585;44.802;10.332;2023-10-08T12:43:17;11.98;;;4.60;;
78120;SDS011;67585;44.802;10.332;2023-10-08T12:45:53;15.13;;;6.28;;
78120;SDS011;67585;44.802;10.332;2023-10-08T12:48:24;14.48;;;5.47;;
78120;SDS011;67585;44.802;10.332;2023-10-08T12:50:52;15.85;;;6.70;;
78120;SDS011;67585;44.802;10.332;2023-10-08T12:53:24;13.13;;;6.50;;
78120;SDS011;67585;44.802;10.332;2023-10-08T12:56:02;16.70;;;4.47;;
78120;SDS011;67585;44.802;10.332;2023-10-08T12:58:34;11.95;;;4.93;;
78120;SDS011;67585;44.802;10.332;2023-10-08T13:01:07;13.35;;;4.65;;
78120;SDS011;67585;44.802;10.332;2023-10-08T13:03:34;15.93;;;5.00;;
78120;SDS011;67585;44.802;10.332;2023-10-08T13:06:06;12.15;;;4.28;;
78120;SDS011;67585;44.802;10.332;2023-10-08T13:08:40;12.98;;;4.20;;
78120;SDS011;67585;44.802;10.332;2023-10-08T13:11:06;14.10;;;5.15;;
78120;SDS011;67585;44.802;10.332;2023-10-08T13:13:31;16.52;;;7.05;;
78120;SDS011;67585;44.802;10.332;2023-10-08T13:15:57;10.70;;;4.70;;
78120;SDS011;67585;44.802;10.332;2023-10-08T13:18:27;15.98;;;5.55;;
78120;SDS011;67585;44.802;10.332;2023-10-08T13:20:53;15.98;;;5.13;;
78120;SDS011;67585;44.802;10.332;2023-10-08T13:23:19;10.75;;;5.53;;
78120;SDS011;67585;44.802;10.332;2023-10-08T13:25:46;12.07;;;4.75;;
78120;SDS011;67585;44.802;10.332;2023-10-08T13:28:19;9.85;;;4.00;;
78120;SDS011;67585;44.802;10.332;2023-10-08T13:30:49;14.02;;;5.07;;
78120;SDS011;67585;44.802;10.332;2023-10-08T13:33:18;16.30;;;5.50;;
78120;SDS011;67585;44.802;10.332;2023-10-08T13:35:44;13.15;;;5.13;;
78120;SDS011;67585;44.802;10.332;2023-10-08T13:38:10;12.45;;;5.97;;
78120;SDS011;67585;44.802;10.332;2023-10-08T13:40:38;12.43;;;4.50;;
78120;SDS011;67585;44.802;10.332;2023-10-08T13:43:08;15.88;;;5.82;;
78120;SDS011;67585;44.802;10.332;2023-10-08T13:45:36;12.98;;;4.93;;
78120;SDS011;67585;44.802;10.332;2023-10-08T13:48:04;17.73;;;4.07;;
78120;SDS011;67585;44.802;10.332;2023-10-08T13:50:30;13.90;;;3.80;;
78120;SDS011;67585;44.802;10.332;2023-10-08T13:52:56;15.55;;;4.18;;
78120;SDS011;67585;44.802;10.332;2023-10-08T13:55:23;14.85;;;4.28;;
78120;SDS011;67585;44.802;10.332;2023-10-08T13:57:50;12.90;;;3.88;;
78120;SDS011;67585;44.802;10.332;2023-10-08T14:00:16;15.52;;;6.28;;
78120;SDS011;67585;44.802;10.332;2023-10-08T14:02:50;12.23;;;5.40;;
78120;SDS011;67585;44.802;10.332;2023-10-08T14:05:17;13.32;;;4.00;;
78120;SDS011;67585;44.802;10.332;2023-10-08T14:07:46;11.40;;;4.22;;
78120;SDS011;67585;44.802;10.332;2023-10-08T14:10:14;18.17;;;3.90;;
78120;SDS011;67585;44.802;10.332;2023-10-08T14:12:44;14.77;;;4.75;;
78120;SDS011;67585;44.802;10.332;2023-10-08T14:15:14;13.23;;;4.35;;
78120;SDS011;67585;44.802;10.332;2023-10-08T14:17:41;9.57;;;3.75;;
78120;SDS011;67585;44.802;10.332;2023-10-08T14:20:08;12.50;;;4.95;;
78120;SDS011;67585;44.802;10.332;2023-10-08T14:22:38;11.73;;;3.90;;
78120;SDS011;67585;44.802;10.332;2023-10-08T14:25:06;16.73;;;4.70;;
78120;SDS011;67585;44.802;10.332;2023-10-08T14:27:40;10.63;;;4.95;;
78120;SDS011;67585;44.802;10.332;2023-10-08T14:30:08;11.02;;;4.03;;
78120;SDS011;67585;44.802;10.332;2023-10-08T14:32:41;11.63;;;5.03;;
78120;SDS011;67585;44.802;10.332;2023-10-08T14:35:11;14.98;;;5.28;;
78120;SDS011;67585;44.802;10.332;2023-10-08T14:37:55;11.43;;;3.80;;
78120;SDS011;67585;44.802;10.332;2023-10-08T14:40:40;12.40;;;3.50;;
78120;SDS011;67585;44.802;10.332;2023-10-08T14:43:24;12.57;;;3.45;;
78120;SDS011;67585;44.802;10.332;2023-10-08T14:45:49;17.83;;;4.57;;
78120;SDS011;67585;44.802;10.332;2023-10-08T14:48:16;14.85;;;4.43;;
78120;SDS011;67585;44.802;10.332;2023-10-08T14:50:42;13.88;;;3.63;;
78120;SDS011;67585;44.802;10.332;2023-10-08T14:53:07;11.35;;;4.72;;
78120;SDS011;67585;44.802;10.332;2023-10-08T14:55:33;15.82;;;3.83;;
78120;SDS011;67585;44.802;10.332;2023-10-08T14:58:01;12.40;;;5.85;;
78120;SDS011;67585;44.802;10.332;2023-10-08T15:00:32;16.80;;;4.82;;